sensor_id;sensor_type;location;lat;lon;timestamp;P1;durP1;ratioP1;P2;durP2;ratioP2
67997;SDS011;54773;53.388;-1.504;2023-03-01T00:00:49;17.80;;;5.97;;
67997;SDS011;54773;53.388;-1.504;2023-03-01T00:03:15;10.95;;;5.38;;
67997;SDS011;54773;53.388;-1.504;2023-03-01T00:05:47;12.18;;;5.85;;
67997;SDS011;54773;53.388;-1.504;2023-03-01T00:08:12;10.77;;;5.07;;
67997;SDS011;54773;53.388;-1.504;2023-03-01T00:10:38;10.50;;;5.38;;
67997;SDS011;54773;53.388;-1.504;2023-03-01T00:13:03;11.02;;;4.55;;
67997;SDS011;54773;53.388;-1.504;2023-03-01T00:15:30;8.40;;;4.28;;
67997;SDS011;54773;53.388;-1.504;2023-03-01T00:17:56;12.35;;;4.68;;
67997;SDS011;54773;53.388;-1.504;2023-03-01T00:20:22;13.77;;;4.70;;
67997;SDS011;54773;53.388;-1.504;2023-03-01T00:22:47;9.27;;;4.10;;
67997;SDS011;54773;53.388;-1.504;2023-03-01T00:25:13;12.05;;;4.35;;
67997;SDS011;54773;53.388;-1.504;2023-03-01T00:27:38;11.50;;;4.18;;
67997;SDS011;54773;53.388;-1.504;2023-03-01T00:30:04;7.72;;;4.07;;
67997;SDS011;54773;53.388;-1.504;2023-03-01T00:32:30;9.70;;;4.43;;
67997;SDS011;54773;53.388;-1.504;2023-03-01T00:34:55;9.45;;;4.10;;
67997;SDS011;54773;53.388;-1.504;2023-03-01T00:37:21;8.90;;;4.18;;
67997;SDS011;54773;53.388;-1.504;2023-03-01T00:39:47;10.98;;;5.45;;
67997;SDS011;54773;53.388;-1.504;2023-03-01T00:42:13;10.70;;;5.00;;
67997;SDS011;54773;53.388;-1.504;2023-03-01T00:44:38;10.35;;;4.95;;
67997;SDS011;54773;53.388;-1.504;2023-03-01T00:47:03;12.00;;;4.35;;
67997;SDS011;54773;53.388;-1.504;2023-03-01T00:49:29;9.93;;;4.13;;
67997;SDS011;54773;53.388;-1.504;2023-03-01T00:51:55;11.05;;;4.88;;
67997;SDS011;54773;53.388;-1.504;2023-03-01T00:54:20;8.93;;;3.88;;
67997;SDS011;54773;53.388;-1.504;2023-03-01T00:56:45;7.97;;;4.22;;
67997;SDS011;54773;53.388;-1.504;2023-03-01T00:59:11;9.25;;;3.92;;
67997;SDS011;54773;53.388;-1.504;2023-03-01T01:01:36;7.68;;;4.30;;
67997;SDS011;54773;53.388;-1.504;2023-03-01T01:04:03;10.23;;;5.03;;
67997;SDS011;54773;53.388;-1.504;2023-03-01T01:06:35;11.70;;;5.53;;
67997;SDS011;54773;53.388;-1.504;2023-03-01T01:09:03;13.43;;;5.95;;
67997;SDS011;54773;53.388;-1.504;2023-03-01T01:11:30;13.73;;;6.53;;
67997;SDS011;54773;53.388;-1.504;2023-03-01T01:13:56;18.02;;;6.70;;
67997;SDS011;54773;53.388;-1.504;2023-03-01T01:16:23;12.73;;;6.03;;
67997;SDS011;54773;53.388;-1.504;2023-03-01T01:19:09;11.95;;;5.85;;
67997;SDS011;54773;53.388;-1.504;2023-03-01T01:21:35;11.63;;;5.85;;
67997;SDS011;54773;53.388;-1.504;2023-03-01T01:24:02;10.73;;;4.82;;
67997;SDS011;54773;53.388;-1.504;2023-03-01T01:26:29;11.85;;;5.00;;
67997;SDS011;54773;53.388;-1.504;2023-03-01T01:28:56;11.90;;;4.75;;
67997;SDS011;54773;53.388;-1.504;2023-03-01T01:31:26;10.38;;;4.43;;
67997;SDS011;54773;53.388;-1.504;2023-03-01T01:33:53;13.80;;;5.20;;
67997;SDS011;54773;53.388;-1.504;2023-03-01T01:36:18;11.55;;;4.55;;
67997;SDS011;54773;53.388;-1.504;2023-03-01T01:38:44;12.90;;;4.50;;
67997;SDS011;54773;53.388;-1.504;2023-03-01T01:41:10;10.27;;;4.47;;
67997;SDS011;54773;53.388;-1.504;2023-03-01T01:43:40;9.50;;;4.25;;
67997;SDS011;54773;53.388;-1.504;2023-03-01T01:48:57;10.15;;;4.25;;
67997;SDS011;54773;53.388;-1.504;2023-03-01T01:51:27;7.93;;;3.83;;
67997;SDS011;54773;53.388;-1.504;2023-03-01T01:54:03;11.75;;;4.45;;
67997;SDS011;54773;53.388;-1.504;2023-03-01T01:56:32;9.27;;;3.70;;
67997;SDS011;54773;53.388;-1.504;2023-03-01T01:58:58;8.88;;;3.70;;
67997;SDS011;54773;53.388;-1.504;2023-03-01T02:01:24;8.45;;;3.83;;
67997;SDS011;54773;53.388;-1.504;2023-03-01T02:03:50;9.35;;;4.57;;
67997;SDS011;54773;53.388;-1.504;2023-03-01T02:06:20;11.38;;;4.00;;
67997;SDS011;54773;53.388;-1.504;2023-03-01T02:08:53;8.02;;;3.60;;
67997;SDS011;54773;53.388;-1.504;2023-03-01T02:11:20;9.95;;;3.50;;
67997;SDS011;54773;53.388;-1.504;2023-03-01T02:13:47;8.40;;;3.03;;
67997;SDS011;54773;53.388;-1.504;2023-03-01T02:16:13;6.30;;;3.33;;
67997;SDS011;54773;53.388;-1.504;2023-03-01T02:18:40;8.45;;;3.75;;
67997;SDS011;54773;53.388;-1.504;2023-03-01T02:24:23;10.00;;;3.85;;
67997;SDS011;54773;53.388;-1.504;2023-03-01T02:26:57;7.35;;;4.03;;
67997;SDS011;54773;53.388;-1.504;2023-03-01T02:29:23;9.98;;;4.80;;
67997;SDS011;54773;53.388;-1.504;2023-03-01T02:31:49;9.68;;;4.47;;
67997;SDS011;54773;53.388;-1.504;2023-03-01T02:34:23;9.20;;;4.68;;
67997;SDS011;54773;53.388;-1.504;2023-03-01T02:36:53;9.43;;;4.75;;
67997;SDS011;54773;53.388;-1.504;2023-03-01T02:39:24;9.80;;;4.57;;
67997;SDS011;54773;53.388;-1.504;2023-03-01T02:41:54;9.90;;;4.65;;
67997;SDS011;54773;53.388;-1.504;2023-03-01T02:44:21;11.07;;;4.60;;
67997;SDS011;54773;53.388;-1.504;2023-03-01T02:46:48;8.25;;;4.13;;
67997;SDS011;54773;53.388;-1.504;2023-03-01T02:49:18;7.65;;;4.13;;
67997;SDS011;54773;53.388;-1.504;2023-03-01T02:55:04;15.48;;;5.00;;
67997;SDS011;54773;53.388;-1.504;2023-03-01T02:57:33;10.70;;;4.75;;
67997;SDS011;54773;53.388;-1.504;2023-03-01T03:00:02;12.32;;;5.00;;
67997;SDS011;54773;53.388;-1.504;2023-03-01T03:02:32;11.93;;;5.60;;
67997;SDS011;54773;53.388;-1.504;2023-03-01T03:05:34;12.60;;;5.60;;
67997;SDS011;54773;53.388;-1.504;2023-03-01T03:07:54;11.27;;;5.03;;
67997;SDS011;54773;53.388;-1.504;2023-03-01T03:10:21;10.10;;;4.18;;
67997;SDS011;54773;53.388;-1.504;2023-03-01T03:12:52;10.55;;;4.70;;
67997;SDS011;54773;53.388;-1.504;2023-03-01T03:15:22;11.35;;;4.47;;
67997;SDS011;54773;53.388;-1.504;2023-03-01T03:17:48;11.77;;;4.68;;
67997;SDS011;54773;53.388;-1.504;2023-03-01T03:20:16;12.90;;;5.50;;
67997;SDS011;54773;53.388;-1.504;2023-03-01T03:22:46;11.38;;;5.18;;
67997;SDS011;54773;53.388;-1.504;2023-03-01T03:25:13;10.27;;;4.57;;
67997;SDS011;54773;53.388;-1.504;2023-03-01T03:27:43;12.85;;;5.15;;
67997;SDS011;54773;53.388;-1.504;2023-03-01T03:30:10;11.70;;;4.55;;
67997;SDS011;54773;53.388;-1.504;2023-03-01T03:32:42;11.75;;;5.43;;
67997;SDS011;54773;53.388;-1.504;2023-03-01T03:35:17;14.18;;;5.75;;
67997;SDS011;54773;53.388;-1.504;2023-03-01T03:38:04;13.48;;;5.78;;
67997;SDS011;54773;53.388;-1.504;2023-03-01T03:43:23;9.57;;;4.10;;
67997;SDS011;54773;53.388;-1.504;2023-03-01T03:45:49;9.95;;;4.05;;
67997;SDS011;54773;53.388;-1.504;2023-03-01T03:48:18;10.13;;;4.55;;
67997;SDS011;54773;53.388;-1.504;2023-03-01T03:50:51;12.90;;;4.90;;
67997;SDS011;54773;53.388;-1.504;2023-03-01T03:53:19;10.73;;;4.40;;
67997;SDS011;54773;53.388;-1.504;2023-03-01T03:55:45;10.27;;;4.35;;
67997;SDS011;54773;53.388;-1.504;2023-03-01T03:58:14;10.52;;;4.20;;
67997;SDS011;54773;53.388;-1.504;2023-03-01T04:00:42;9.13;;;3.30;;
67997;SDS011;54773;53.388;-1.504;2023-03-01T04:03:09;8.88;;;3.30;;
67997;SDS011;54773;53.388;-1.504;2023-03-01T04:05:35;7.35;;;2.95;;
67997;SDS011;54773;53.388;-1.504;2023-03-01T04:08:01;7.55;;;2.90;;
67997;SDS011;54773;53.388;-1.504;2023-03-01T04:10:31;7.15;;;2.70;;
67997;SDS011;54773;53.388;-1.504;2023-03-01T04:13:09;6.95;;;2.85;;
67997;SDS011;54773;53.388;-1.504;2023-03-01T04:15:36;6.75;;;3.22;;
67997;SDS011;54773;53.388;-1.504;2023-03-01T04:18:02;8.77;;;4.03;;
67997;SDS011;54773;53.388;-1.504;2023-03-01T04:20:29;8.30;;;3.70;;
67997;SDS011;54773;53.388;-1.504;2023-03-01T04:25:36;12.95;;;4.93;;
67997;SDS011;54773;53.388;-1.504;2023-03-01T04:28:02;12.18;;;5.50;;
67997;SDS011;54773;53.388;-1.504;2023-03-01T04:30:28;12.05;;;5.78;;
67997;SDS011;54773;53.388;-1.504;2023-03-01T04:32:53;14.00;;;6.25;;
67997;SDS011;54773;53.388;-1.504;2023-03-01T04:35:19;11.38;;;5.10;;
67997;SDS011;54773;53.388;-1.504;2023-03-01T04:37:45;11.68;;;5.35;;
67997;SDS011;54773;53.388;-1.504;2023-03-01T04:40:11;11.32;;;5.13;;
67997;SDS011;54773;53.388;-1.504;2023-03-01T04:42:42;12.38;;;5.45;;
67997;SDS011;54773;53.388;-1.504;2023-03-01T04:45:08;10.63;;;5.35;;
67997;SDS011;54773;53.388;-1.504;2023-03-01T04:47:41;12.10;;;5.88;;
67997;SDS011;54773;53.388;-1.504;2023-03-01T04:50:08;11.77;;;5.57;;
67997;SDS011;54773;53.388;-1.504;2023-03-01T04:52:34;10.82;;;5.75;;
67997;SDS011;54773;53.388;-1.504;2023-03-01T04:55:00;11.35;;;4.38;;
67997;SDS011;54773;53.388;-1.504;2023-03-01T04:57:26;8.30;;;4.65;;
67997;SDS011;54773;53.388;-1.504;2023-03-01T04:59:51;11.52;;;5.10;;
67997;SDS011;54773;53.388;-1.504;2023-03-01T05:02:16;10.48;;;4.32;;
67997;SDS011;54773;53.388;-1.504;2023-03-01T05:04:42;10.45;;;5.00;;
67997;SDS011;54773;53.388;-1.504;2023-03-01T05:07:07;13.15;;;5.80;;
67997;SDS011;54773;53.388;-1.504;2023-03-01T05:09:33;8.60;;;4.10;;
67997;SDS011;54773;53.388;-1.504;2023-03-01T05:11:58;9.13;;;4.32;;
67997;SDS011;54773;53.388;-1.504;2023-03-01T05:14:24;11.00;;;4.20;;
67997;SDS011;54773;53.388;-1.504;2023-03-01T05:16:49;7.97;;;3.95;;
67997;SDS011;54773;53.388;-1.504;2023-03-01T05:19:15;8.57;;;3.30;;
67997;SDS011;54773;53.388;-1.504;2023-03-01T05:21:41;8.80;;;4.07;;
67997;SDS011;54773;53.388;-1.504;2023-03-01T05:24:26;8.60;;;3.10;;
67997;SDS011;54773;53.388;-1.504;2023-03-01T05:26:51;8.45;;;2.88;;
67997;SDS011;54773;53.388;-1.504;2023-03-01T05:29:18;9.73;;;3.15;;
67997;SDS011;54773;53.388;-1.504;2023-03-01T05:31:59;6.93;;;2.78;;
67997;SDS011;54773;53.388;-1.504;2023-03-01T05:34:26;9.43;;;3.20;;
67997;SDS011;54773;53.388;-1.504;2023-03-01T05:36:53;7.55;;;3.05;;
67997;SDS011;54773;53.388;-1.504;2023-03-01T05:39:23;11.13;;;3.47;;
67997;SDS011;54773;53.388;-1.504;2023-03-01T05:41:57;7.40;;;3.28;;
67997;SDS011;54773;53.388;-1.504;2023-03-01T05:44:26;7.95;;;3.20;;
67997;SDS011;54773;53.388;-1.504;2023-03-01T05:46:53;8.38;;;3.30;;
67997;SDS011;54773;53.388;-1.504;2023-03-01T05:49:19;9.48;;;3.30;;
67997;SDS011;54773;53.388;-1.504;2023-03-01T05:51:48;6.88;;;3.13;;
67997;SDS011;54773;53.388;-1.504;2023-03-01T05:54:15;7.18;;;3.22;;
67997;SDS011;54773;53.388;-1.504;2023-03-01T05:56:41;8.05;;;2.95;;
67997;SDS011;54773;53.388;-1.504;2023-03-01T05:59:06;6.95;;;2.97;;
67997;SDS011;54773;53.388;-1.504;2023-03-01T06:01:32;7.75;;;3.20;;
67997;SDS011;54773;53.388;-1.504;2023-03-01T06:03:58;8.25;;;3.33;;
67997;SDS011;54773;53.388;-1.504;2023-03-01T06:06:24;7.45;;;3.53;;
67997;SDS011;54773;53.388;-1.504;2023-03-01T06:08:50;8.90;;;4.32;;
67997;SDS011;54773;53.388;-1.504;2023-03-01T06:11:16;10.73;;;3.67;;
67997;SDS011;54773;53.388;-1.504;2023-03-01T06:13:42;7.68;;;3.28;;
67997;SDS011;54773;53.388;-1.504;2023-03-01T06:16:08;6.97;;;2.90;;
67997;SDS011;54773;53.388;-1.504;2023-03-01T06:18:35;9.02;;;2.80;;
67997;SDS011;54773;53.388;-1.504;2023-03-01T06:21:00;8.82;;;3.47;;
67997;SDS011;54773;53.388;-1.504;2023-03-01T06:23:26;7.53;;;2.65;;
67997;SDS011;54773;53.388;-1.504;2023-03-01T06:25:52;9.38;;;3.95;;
67997;SDS011;54773;53.388;-1.504;2023-03-01T06:28:18;9.38;;;4.47;;
67997;SDS011;54773;53.388;-1.504;2023-03-01T06:30:43;9.57;;;4.20;;
67997;SDS011;54773;53.388;-1.504;2023-03-01T06:33:11;9.80;;;4.68;;
67997;SDS011;54773;53.388;-1.504;2023-03-01T06:35:37;11.00;;;5.28;;
67997;SDS011;54773;53.388;-1.504;2023-03-01T06:38:03;15.45;;;5.28;;
67997;SDS011;54773;53.388;-1.504;2023-03-01T06:40:29;10.90;;;5.93;;
67997;SDS011;54773;53.388;-1.504;2023-03-01T06:42:56;14.07;;;4.55;;
67997;SDS011;54773;53.388;-1.504;2023-03-01T06:45:22;12.65;;;5.35;;
67997;SDS011;54773;53.388;-1.504;2023-03-01T06:47:47;9.73;;;4.57;;
67997;SDS011;54773;53.388;-1.504;2023-03-01T06:50:14;11.57;;;4.07;;
67997;SDS011;54773;53.388;-1.504;2023-03-01T06:52:40;11.07;;;3.90;;
67997;SDS011;54773;53.388;-1.504;2023-03-01T06:55:05;8.15;;;3.80;;
67997;SDS011;54773;53.388;-1.504;2023-03-01T06:57:31;13.82;;;4.70;;
67997;SDS011;54773;53.388;-1.504;2023-03-01T06:59:57;10.00;;;4.10;;
67997;SDS011;54773;53.388;-1.504;2023-03-01T07:02:22;9.07;;;4.20;;
67997;SDS011;54773;53.388;-1.504;2023-03-01T07:04:49;10.13;;;4.60;;
67997;SDS011;54773;53.388;-1.504;2023-03-01T07:07:15;12.10;;;5.13;;
67997;SDS011;54773;53.388;-1.504;2023-03-01T07:09:43;13.93;;;6.28;;
67997;SDS011;54773;53.388;-1.504;2023-03-01T07:12:09;13.23;;;5.88;;
67997;SDS011;54773;53.388;-1.504;2023-03-01T07:14:34;15.68;;;7.20;;
67997;SDS011;54773;53.388;-1.504;2023-03-01T07:16:59;15.57;;;7.20;;
67997;SDS011;54773;53.388;-1.504;2023-03-01T07:19:25;11.70;;;6.05;;
67997;SDS011;54773;53.388;-1.504;2023-03-01T07:21:50;11.55;;;5.82;;
67997;SDS011;54773;53.388;-1.504;2023-03-01T07:24:16;17.50;;;6.75;;
67997;SDS011;54773;53.388;-1.504;2023-03-01T07:26:41;16.02;;;5.85;;
67997;SDS011;54773;53.388;-1.504;2023-03-01T07:29:07;12.23;;;6.68;;
67997;SDS011;54773;53.388;-1.504;2023-03-01T07:31:33;16.05;;;6.28;;
67997;SDS011;54773;53.388;-1.504;2023-03-01T07:33:59;10.40;;;5.18;;
67997;SDS011;54773;53.388;-1.504;2023-03-01T07:36:25;12.45;;;5.65;;
67997;SDS011;54773;53.388;-1.504;2023-03-01T07:39:22;12.45;;;5.53;;
67997;SDS011;54773;53.388;-1.504;2023-03-01T07:41:50;14.88;;;5.97;;
67997;SDS011;54773;53.388;-1.504;2023-03-01T07:44:16;10.75;;;5.97;;
67997;SDS011;54773;53.388;-1.504;2023-03-01T07:46:42;14.38;;;5.75;;
67997;SDS011;54773;53.388;-1.504;2023-03-01T07:49:08;11.80;;;4.95;;
67997;SDS011;54773;53.388;-1.504;2023-03-01T07:51:33;9.90;;;5.07;;
67997;SDS011;54773;53.388;-1.504;2023-03-01T07:53:58;8.77;;;4.68;;
67997;SDS011;54773;53.388;-1.504;2023-03-01T07:56:24;11.38;;;4.78;;
67997;SDS011;54773;53.388;-1.504;2023-03-01T07:58:52;10.00;;;5.40;;
67997;SDS011;54773;53.388;-1.504;2023-03-01T08:01:19;9.77;;;5.13;;
67997;SDS011;54773;53.388;-1.504;2023-03-01T08:03:46;9.80;;;5.57;;
67997;SDS011;54773;53.388;-1.504;2023-03-01T08:06:16;8.07;;;3.95;;
67997;SDS011;54773;53.388;-1.504;2023-03-01T08:08:41;14.45;;;5.28;;
67997;SDS011;54773;53.388;-1.504;2023-03-01T08:11:07;7.40;;;3.92;;
67997;SDS011;54773;53.388;-1.504;2023-03-01T08:13:35;9.30;;;3.88;;
67997;SDS011;54773;53.388;-1.504;2023-03-01T08:16:04;8.93;;;4.28;;
67997;SDS011;54773;53.388;-1.504;2023-03-01T08:18:31;10.85;;;4.22;;
67997;SDS011;54773;53.388;-1.504;2023-03-01T08:21:04;10.05;;;4.80;;
67997;SDS011;54773;53.388;-1.504;2023-03-01T08:23:30;10.63;;;4.93;;
67997;SDS011;54773;53.388;-1.504;2023-03-01T08:26:02;9.23;;;4.03;;
67997;SDS011;54773;53.388;-1.504;2023-03-01T08:28:41;7.78;;;3.63;;
67997;SDS011;54773;53.388;-1.504;2023-03-01T08:31:40;6.95;;;3.38;;
67997;SDS011;54773;53.388;-1.504;2023-03-01T08:34:01;7.63;;;3.10;;
67997;SDS011;54773;53.388;-1.504;2023-03-01T08:36:28;7.32;;;2.97;;
67997;SDS011;54773;53.388;-1.504;2023-03-01T08:38:55;7.32;;;3.72;;
67997;SDS011;54773;53.388;-1.504;2023-03-01T08:41:21;5.57;;;2.53;;
67997;SDS011;54773;53.388;-1.504;2023-03-01T08:43:46;6.53;;;1.98;;
67997;SDS011;54773;53.388;-1.504;2023-03-01T08:46:12;10.30;;;2.80;;
67997;SDS011;54773;53.388;-1.504;2023-03-01T08:48:38;7.03;;;2.92;;
67997;SDS011;54773;53.388;-1.504;2023-03-01T08:51:08;6.15;;;2.55;;
67997;SDS011;54773;53.388;-1.504;2023-03-01T08:53:38;7.25;;;3.28;;
67997;SDS011;54773;53.388;-1.504;2023-03-01T08:56:04;8.07;;;2.88;;
67997;SDS011;54773;53.388;-1.504;2023-03-01T08:58:29;6.68;;;3.38;;
67997;SDS011;54773;53.388;-1.504;2023-03-01T09:00:55;7.53;;;2.90;;
67997;SDS011;54773;53.388;-1.504;2023-03-01T09:03:23;11.00;;;3.47;;
67997;SDS011;54773;53.388;-1.504;2023-03-01T09:05:50;6.10;;;3.00;;
67997;SDS011;54773;53.388;-1.504;2023-03-01T09:08:16;9.45;;;3.92;;
67997;SDS011;54773;53.388;-1.504;2023-03-01T09:10:42;8.20;;;3.25;;
67997;SDS011;54773;53.388;-1.504;2023-03-01T09:13:11;10.75;;;3.65;;
67997;SDS011;54773;53.388;-1.504;2023-03-01T09:15:56;9.05;;;3.55;;
67997;SDS011;54773;53.388;-1.504;2023-03-01T09:18:22;12.98;;;6.70;;
67997;SDS011;54773;53.388;-1.504;2023-03-01T09:20:48;9.55;;;4.28;;
67997;SDS011;54773;53.388;-1.504;2023-03-01T09:23:13;7.57;;;3.42;;
67997;SDS011;54773;53.388;-1.504;2023-03-01T09:25:38;4.90;;;1.90;;
67997;SDS011;54773;53.388;-1.504;2023-03-01T09:28:04;8.20;;;2.88;;
67997;SDS011;54773;53.388;-1.504;2023-03-01T09:30:29;8.88;;;2.55;;
67997;SDS011;54773;53.388;-1.504;2023-03-01T09:32:56;5.38;;;2.70;;
67997;SDS011;54773;53.388;-1.504;2023-03-01T09:35:21;8.77;;;3.20;;
67997;SDS011;54773;53.388;-1.504;2023-03-01T09:37:48;8.38;;;3.00;;
67997;SDS011;54773;53.388;-1.504;2023-03-01T09:40:19;7.22;;;2.45;;
67997;SDS011;54773;53.388;-1.504;2023-03-01T09:42:47;6.28;;;2.67;;
67997;SDS011;54773;53.388;-1.504;2023-03-01T09:45:32;5.00;;;2.75;;
67997;SDS011;54773;53.388;-1.504;2023-03-01T09:47:59;7.63;;;4.60;;
67997;SDS011;54773;53.388;-1.504;2023-03-01T09:50:26;8.68;;;3.83;;
67997;SDS011;54773;53.388;-1.504;2023-03-01T09:55:32;7.22;;;3.55;;
67997;SDS011;54773;53.388;-1.504;2023-03-01T09:58:17;8.13;;;3.72;;
67997;SDS011;54773;53.388;-1.504;2023-03-01T10:09:35;6.28;;;2.50;;
67997;SDS011;54773;53.388;-1.504;2023-03-01T10:12:18;9.38;;;2.80;;
67997;SDS011;54773;53.388;-1.504;2023-03-01T10:20:23;6.03;;;2.08;;
67997;SDS011;54773;53.388;-1.504;2023-03-01T10:22:55;7.65;;;2.30;;
67997;SDS011;54773;53.388;-1.504;2023-03-01T10:25:31;6.22;;;2.35;;
67997;SDS011;54773;53.388;-1.504;2023-03-01T10:30:52;8.95;;;2.53;;
67997;SDS011;54773;53.388;-1.504;2023-03-01T10:33:33;8.95;;;2.60;;
67997;SDS011;54773;53.388;-1.504;2023-03-01T10:36:01;5.32;;;1.88;;
67997;SDS011;54773;53.388;-1.504;2023-03-01T10:38:27;5.18;;;2.20;;
67997;SDS011;54773;53.388;-1.504;2023-03-01T10:41:17;9.55;;;3.08;;
67997;SDS011;54773;53.388;-1.504;2023-03-01T10:43:48;8.20;;;3.70;;
67997;SDS011;54773;53.388;-1.504;2023-03-01T10:46:29;6.50;;;2.33;;
67997;SDS011;54773;53.388;-1.504;2023-03-01T10:49:39;7.35;;;2.70;;
67997;SDS011;54773;53.388;-1.504;2023-03-01T10:51:51;8.80;;;2.90;;
67997;SDS011;54773;53.388;-1.504;2023-03-01T10:54:19;6.20;;;2.38;;
67997;SDS011;54773;53.388;-1.504;2023-03-01T10:56:54;8.65;;;2.92;;
67997;SDS011;54773;53.388;-1.504;2023-03-01T10:59:26;5.63;;;2.10;;
67997;SDS011;54773;53.388;-1.504;2023-03-01T11:04:28;4.75;;;1.85;;
67997;SDS011;54773;53.388;-1.504;2023-03-01T11:06:59;5.65;;;1.90;;
67997;SDS011;54773;53.388;-1.504;2023-03-01T11:09:25;7.05;;;2.05;;
67997;SDS011;54773;53.388;-1.504;2023-03-01T11:11:55;6.55;;;2.25;;
67997;SDS011;54773;53.388;-1.504;2023-03-01T11:14:23;4.47;;;2.00;;
67997;SDS011;54773;53.388;-1.504;2023-03-01T11:17:04;7.88;;;2.72;;
67997;SDS011;54773;53.388;-1.504;2023-03-01T11:19:42;6.43;;;2.58;;
67997;SDS011;54773;53.388;-1.504;2023-03-01T11:22:12;5.22;;;1.88;;
67997;SDS011;54773;53.388;-1.504;2023-03-01T11:24:40;4.43;;;2.30;;
67997;SDS011;54773;53.388;-1.504;2023-03-01T11:27:16;7.85;;;2.33;;
67997;SDS011;54773;53.388;-1.504;2023-03-01T11:32:42;6.70;;;2.30;;
67997;SDS011;54773;53.388;-1.504;2023-03-01T11:35:13;6.68;;;2.40;;
67997;SDS011;54773;53.388;-1.504;2023-03-01T11:37:55;7.78;;;2.08;;
67997;SDS011;54773;53.388;-1.504;2023-03-01T11:40:40;4.43;;;1.65;;
67997;SDS011;54773;53.388;-1.504;2023-03-01T11:45:50;7.15;;;2.30;;
67997;SDS011;54773;53.388;-1.504;2023-03-01T11:49:26;5.03;;;2.08;;
67997;SDS011;54773;53.388;-1.504;2023-03-01T11:51:36;4.75;;;1.95;;
67997;SDS011;54773;53.388;-1.504;2023-03-01T11:56:55;6.22;;;2.17;;
67997;SDS011;54773;53.388;-1.504;2023-03-01T11:59:38;4.03;;;1.42;;
67997;SDS011;54773;53.388;-1.504;2023-03-01T12:10:48;5.40;;;1.52;;
67997;SDS011;54773;53.388;-1.504;2023-03-01T12:19:04;7.65;;;1.48;;
67997;SDS011;54773;53.388;-1.504;2023-03-01T12:25:16;3.95;;;1.30;;
67997;SDS011;54773;53.388;-1.504;2023-03-01T12:31:50;6.88;;;1.13;;
67997;SDS011;54773;53.388;-1.504;2023-03-01T12:34:19;2.53;;;0.90;;
67997;SDS011;54773;53.388;-1.504;2023-03-01T12:37:00;4.20;;;0.98;;
67997;SDS011;54773;53.388;-1.504;2023-03-01T12:39:34;3.92;;;0.95;;
67997;SDS011;54773;53.388;-1.504;2023-03-01T12:50:38;5.07;;;1.10;;
67997;SDS011;54773;53.388;-1.504;2023-03-01T12:53:05;3.97;;;0.90;;
67997;SDS011;54773;53.388;-1.504;2023-03-01T12:55:34;3.95;;;0.80;;
67997;SDS011;54773;53.388;-1.504;2023-03-01T12:58:08;6.95;;;1.33;;
67997;SDS011;54773;53.388;-1.504;2023-03-01T13:00:59;5.70;;;1.10;;
67997;SDS011;54773;53.388;-1.504;2023-03-01T13:03:31;4.35;;;1.50;;
67997;SDS011;54773;53.388;-1.504;2023-03-01T13:06:07;6.03;;;2.05;;
67997;SDS011;54773;53.388;-1.504;2023-03-01T13:08:42;8.85;;;3.13;;
67997;SDS011;54773;53.388;-1.504;2023-03-01T13:11:23;7.28;;;2.60;;
67997;SDS011;54773;53.388;-1.504;2023-03-01T13:13:49;5.65;;;2.30;;
67997;SDS011;54773;53.388;-1.504;2023-03-01T13:16:58;7.85;;;2.55;;
67997;SDS011;54773;53.388;-1.504;2023-03-01T13:19:08;11.27;;;2.92;;
67997;SDS011;54773;53.388;-1.504;2023-03-01T13:21:38;6.50;;;2.15;;
67997;SDS011;54773;53.388;-1.504;2023-03-01T13:24:03;6.00;;;1.58;;
67997;SDS011;54773;53.388;-1.504;2023-03-01T13:26:29;6.10;;;2.00;;
67997;SDS011;54773;53.388;-1.504;2023-03-01T13:28:55;6.50;;;2.05;;
67997;SDS011;54773;53.388;-1.504;2023-03-01T13:33:51;6.28;;;1.63;;
67997;SDS011;54773;53.388;-1.504;2023-03-01T13:41:52;7.22;;;1.55;;
67997;SDS011;54773;53.388;-1.504;2023-03-01T13:44:32;6.40;;;1.90;;
67997;SDS011;54773;53.388;-1.504;2023-03-01T13:47:20;3.75;;;0.82;;
67997;SDS011;54773;53.388;-1.504;2023-03-01T13:49:52;5.05;;;1.30;;
67997;SDS011;54773;53.388;-1.504;2023-03-01T13:55:00;6.20;;;1.10;;
67997;SDS011;54773;53.388;-1.504;2023-03-01T13:57:30;5.45;;;1.50;;
67997;SDS011;54773;53.388;-1.504;2023-03-01T13:59:59;6.55;;;1.40;;
67997;SDS011;54773;53.388;-1.504;2023-03-01T14:02:24;5.25;;;1.45;;
67997;SDS011;54773;53.388;-1.504;2023-03-01T14:04:56;4.45;;;1.25;;
67997;SDS011;54773;53.388;-1.504;2023-03-01T14:07:22;7.88;;;1.88;;
67997;SDS011;54773;53.388;-1.504;2023-03-01T14:10:12;3.63;;;1.25;;
67997;SDS011;54773;53.388;-1.504;2023-03-01T14:20:33;6.25;;;1.48;;
67997;SDS011;54773;53.388;-1.504;2023-03-01T14:23:08;5.10;;;1.20;;
67997;SDS011;54773;53.388;-1.504;2023-03-01T14:25:36;5.50;;;1.27;;
67997;SDS011;54773;53.388;-1.504;2023-03-01T14:30:44;5.00;;;1.20;;
67997;SDS011;54773;53.388;-1.504;2023-03-01T14:33:55;5.70;;;1.50;;
67997;SDS011;54773;53.388;-1.504;2023-03-01T14:38:31;5.00;;;1.38;;
67997;SDS011;54773;53.388;-1.504;2023-03-01T14:40:58;6.78;;;2.03;;
67997;SDS011;54773;53.388;-1.504;2023-03-01T14:43:25;5.00;;;1.40;;
67997;SDS011;54773;53.388;-1.504;2023-03-01T14:45:51;4.97;;;1.55;;
67997;SDS011;54773;53.388;-1.504;2023-03-01T14:48:16;5.70;;;1.65;;
67997;SDS011;54773;53.388;-1.504;2023-03-01T14:50:43;8.52;;;1.58;;
67997;SDS011;54773;53.388;-1.504;2023-03-01T14:53:20;7.43;;;1.80;;
67997;SDS011;54773;53.388;-1.504;2023-03-01T14:55:56;3.17;;;1.30;;
67997;SDS011;54773;53.388;-1.504;2023-03-01T14:58:27;4.70;;;1.30;;
67997;SDS011;54773;53.388;-1.504;2023-03-01T15:00:53;6.55;;;1.50;;
67997;SDS011;54773;53.388;-1.504;2023-03-01T15:03:30;6.28;;;1.48;;
67997;SDS011;54773;53.388;-1.504;2023-03-01T15:06:04;6.22;;;1.40;;
67997;SDS011;54773;53.388;-1.504;2023-03-01T15:08:31;4.53;;;1.20;;
67997;SDS011;54773;53.388;-1.504;2023-03-01T15:11:20;6.38;;;1.20;;
67997;SDS011;54773;53.388;-1.504;2023-03-01T15:13:53;4.75;;;1.20;;
67997;SDS011;54773;53.388;-1.504;2023-03-01T15:16:26;7.40;;;1.88;;
67997;SDS011;54773;53.388;-1.504;2023-03-01T15:18:59;4.60;;;1.10;;
67997;SDS011;54773;53.388;-1.504;2023-03-01T15:21:29;5.43;;;1.30;;
67997;SDS011;54773;53.388;-1.504;2023-03-01T15:24:06;9.00;;;1.65;;
67997;SDS011;54773;53.388;-1.504;2023-03-01T15:26:51;4.93;;;1.77;;
67997;SDS011;54773;53.388;-1.504;2023-03-01T15:29:25;6.95;;;2.03;;
67997;SDS011;54773;53.388;-1.504;2023-03-01T15:31:59;6.82;;;1.85;;
67997;SDS011;54773;53.388;-1.504;2023-03-01T15:34:32;8.68;;;3.70;;
67997;SDS011;54773;53.388;-1.504;2023-03-01T15:37:00;5.85;;;2.35;;
67997;SDS011;54773;53.388;-1.504;2023-03-01T15:39:30;9.23;;;2.25;;
67997;SDS011;54773;53.388;-1.504;2023-03-01T15:42:05;5.60;;;2.03;;
67997;SDS011;54773;53.388;-1.504;2023-03-01T15:44:33;6.65;;;1.90;;
67997;SDS011;54773;53.388;-1.504;2023-03-01T15:47:00;5.85;;;1.17;;
67997;SDS011;54773;53.388;-1.504;2023-03-01T15:52:02;5.72;;;1.33;;
67997;SDS011;54773;53.388;-1.504;2023-03-01T15:54:28;7.35;;;1.65;;
67997;SDS011;54773;53.388;-1.504;2023-03-01T15:56:55;7.25;;;1.35;;
67997;SDS011;54773;53.388;-1.504;2023-03-01T15:59:21;3.75;;;1.10;;
67997;SDS011;54773;53.388;-1.504;2023-03-01T16:01:47;5.68;;;1.75;;
67997;SDS011;54773;53.388;-1.504;2023-03-01T16:04:14;4.30;;;1.27;;
67997;SDS011;54773;53.388;-1.504;2023-03-01T16:06:49;6.03;;;1.30;;
67997;SDS011;54773;53.388;-1.504;2023-03-01T16:09:19;4.20;;;1.27;;
67997;SDS011;54773;53.388;-1.504;2023-03-01T16:11:46;3.53;;;1.40;;
67997;SDS011;54773;53.388;-1.504;2023-03-01T16:14:11;6.07;;;2.13;;
67997;SDS011;54773;53.388;-1.504;2023-03-01T16:16:37;7.40;;;2.10;;
67997;SDS011;54773;53.388;-1.504;2023-03-01T16:19:03;5.93;;;1.73;;
67997;SDS011;54773;53.388;-1.504;2023-03-01T16:21:28;6.45;;;1.83;;
67997;SDS011;54773;53.388;-1.504;2023-03-01T16:23:54;4.70;;;1.35;;
67997;SDS011;54773;53.388;-1.504;2023-03-01T16:26:19;6.55;;;1.70;;